Balguntay, China
Current Conditions -  °F | °C
As of 11:00 PM on Thursday 30 Oct 2014 (Local Time) from ZWWW Reporting Station
Scattered Clouds Scattered Clouds  
Wind Chill: 36°   Ceiling: Unl
Heat Index: 36°   Visibility: 6mi
Dew Point: 21°   Wind: 0mph
Humidity: 56%   Direction: NA
Pressure: 30.5"   Gusts: NA
Location:  42.67°N, 86.33°E
Report Text: ZWWW 301500Z 00000MPS 9999 SCT043 02/M06 Q1033 NOSIG
Loading
Personal Weather Stations






























Interactive Weather Map
Tropical Storm Tracking
New forecast layout! Learn more

10-Day Weather Forecast

Advertisements
Track Severe Weather on mobile